메인 페이지
METAR-TAF:

METAR-TAF

공항 :

바그다드 국제공항

바그다드, 이라크

위도: 33-15-45N, 경도: 44-14-04E, 고도: 35m

현재 날씨관측

예보는 59분 전, 00:00시(UTC)에 발표되었습니다.
4kt
온도 12°C
습도 100%
기압 1020 hPa
시정 10km 이상
고도 3000ft 상공 구름 많음

METAR: ORBI 100000Z 28004KT 9999 BKN030 12/12 Q1020 NOSIG

시각: 03:59 (00:59 UTC)

예보

예보는 1 시간 59분 전, 23:00시(UTC)에 발표되었습니다.
예보 대상 시간: 10일 00시부터 10일 24시까지 (UTC)
북북서6kt
시정: 7000m
확률 40%
10일 01시부터 10일 06시까지 (UTC)
시정: 2000m
박무

TAF: ORBI 092300Z 1000/1024 33006KT 7000 NSC PROB40 1001/1006 2000 BR

4,000개 이상의 공항 관측 자료 및 예보 (METAR 및 TAF 보고).

지도상에서 검색 가능한 기상관측소가 노란 점과 빨간 점으로 표시되어 있습니다.

기상관측소 명을 보려면 표시 위로 마우스를 이동하세요.

날씨 관측과 예보를 보려면 클릭하세요.

지도 변경 : 확대하려면 엑스 표시가 있는 녹색 버튼, 축소하려면 빼기 표시가 있는 녹색 버튼, 다음 페이지의 지도를 보려면 녹색 화살표를 클릭하세요.


METAR-TAF: